Weather History for Cairo, IL

Change the Weather History Date:

Wednesday, February 20, 2013

  Actual Average Record
Temperature  
Mean Temperature 30 °F -  
Max Temperature 35 °F 50 °F 75 °F (2011)
Min Temperature 26 °F 32 °F 17 °F (1963)
Degree Days  
Heating Degree Days 34    
Moisture  
Dew Point 16 °F    
Average Humidity 55    
Maximum Humidity 69    
Minimum Humidity 48    
Precipitation  
Precipitation 0.00 in - - ()
Sea Level Pressure  
Sea Level Pressure 30.32 in    
Wind  
Wind Speed 7 mph (North)    
Max Wind Speed 13 mph    
Max Gust Speed -    
Visibility 10 miles    
Events      
Averages and records for this station are not official NWS values.
T = Trace of Precipitation, MM = Missing Value Source: NWS Daily Summary

Daily Weather History Graph

Daily Weather History Graph

Search for Another Location

Airport:

Trip Planner

Search our weather history database for the weather conditions in past years. The results will help you decide how hot, cold, wet, or windy it might be!

Date:

Astronomy

Feb. 20, 2013 Rise Set
Actual Time 6:39 AM CST 5:42 PM CST
Civil Twilight 6:12 AM CST 6:08 PM CST
Nautical Twilight 5:42 AM CST 6:39 PM CST
Astronomical Twilight 5:12 AM CST 7:09 PM CST
Moon 1:07 PM CST 2:55 AM CST
Length of Visible Light 11h 55m
Length of Day
11h 03m
Waxing Gibbous, 76% of the Moon is Illuminated
Feb 20
Waxing Gibbous
Feb 25
Full
Mar 4
Last Quarter
Mar 11
New
Mar 19
First Quarter

Hourly Weather History & Observations

Time (CST) Temp. Windchill Dew Point Humidity Pressure Visibility Wind Dir Wind Speed Gust Speed Precip Events Conditions
12:15 AM 32.0 °F 24.8 °F 14.0 °F 48% 30.31 in 10.0 mi NW 8.1 mph - N/A   Clear
12:55 AM 30.2 °F 24.3 °F 15.8 °F 55% 30.32 in 10.0 mi NNW 5.8 mph - N/A   Clear
1:15 AM 30.2 °F 21.3 °F 14.0 °F 51% 30.31 in 10.0 mi NNW 10.4 mph - N/A   Clear
1:35 AM 30.2 °F 23.4 °F 14.0 °F 51% 30.30 in 10.0 mi NNW 6.9 mph - N/A   Clear
1:55 AM 30.2 °F 24.3 °F 15.8 °F 55% 30.31 in 10.0 mi NNW 5.8 mph - N/A   Clear
2:15 AM 30.2 °F 20.2 °F 15.8 °F 55% 30.30 in 10.0 mi North 12.7 mph - N/A   Clear
2:35 AM 30.2 °F 21.9 °F 15.8 °F 55% 30.31 in 10.0 mi NNW 9.2 mph - N/A   Clear
2:55 AM 30.2 °F 21.3 °F 14.0 °F 51% 30.30 in 10.0 mi NNW 10.4 mph - N/A   Clear
3:15 AM 28.4 °F 20.4 °F 14.0 °F 55% 30.31 in 10.0 mi North 8.1 mph - N/A   Clear
3:35 AM 28.4 °F 22.2 °F 14.0 °F 55% 30.31 in 10.0 mi North 5.8 mph - N/A   Clear
3:55 AM 28.4 °F 23.3 °F 14.0 °F 55% 30.32 in 10.0 mi North 4.6 mph - N/A   Clear
4:15 AM 28.4 °F 23.3 °F 12.2 °F 51% 30.33 in 10.0 mi NW 4.6 mph - N/A   Clear
4:35 AM 26.6 °F 21.2 °F 12.2 °F 55% 30.33 in 10.0 mi NW 4.6 mph - N/A   Clear
5:15 AM 26.6 °F 21.2 °F 14.0 °F 59% 30.32 in 10.0 mi NNW 4.6 mph - N/A   Clear
5:35 AM 26.6 °F 21.2 °F 14.0 °F 59% 30.32 in 10.0 mi North 4.6 mph - N/A   Clear
5:55 AM 26.6 °F - 14.0 °F 59% 30.32 in 10.0 mi Calm Calm - N/A   Clear
6:15 AM 26.6 °F - 14.0 °F 59% 30.33 in 10.0 mi Calm Calm - N/A   Clear
6:35 AM 26.6 °F 22.6 °F 14.0 °F 59% 30.33 in 10.0 mi North 3.5 mph - N/A   Clear
6:55 AM 26.6 °F 20.0 °F 12.2 °F 55% 30.33 in 10.0 mi North 5.8 mph - N/A   Clear
7:15 AM 28.4 °F 22.2 °F 14.0 °F 55% 30.34 in 10.0 mi North 5.8 mph - N/A   Clear
7:55 AM 28.4 °F 19.1 °F 12.2 °F 51% 30.36 in 10.0 mi North 10.4 mph - N/A   Clear
8:15 AM 28.4 °F 19.7 °F 14.0 °F 55% 30.37 in 10.0 mi North 9.2 mph - N/A   Clear
8:35 AM 28.4 °F 20.4 °F 14.0 °F 55% 30.38 in 10.0 mi North 8.1 mph - N/A   Clear
8:55 AM 28.4 °F 22.2 °F 14.0 °F 55% 30.38 in 10.0 mi North 5.8 mph - N/A   Clear
9:15 AM 30.2 °F 25.4 °F 14.0 °F 51% 30.40 in 10.0 mi North 4.6 mph - N/A   Clear
9:35 AM 28.4 °F 23.3 °F 14.0 °F 55% 30.39 in 10.0 mi North 4.6 mph - N/A   Clear
9:55 AM 30.2 °F 26.7 °F 14.0 °F 51% 30.39 in 10.0 mi NNE 3.5 mph - N/A   Clear
10:15 AM 30.2 °F 25.4 °F 14.0 °F 51% 30.39 in 10.0 mi NNE 4.6 mph - N/A   Clear
10:35 AM 30.2 °F 24.3 °F 14.0 °F 51% 30.40 in 10.0 mi NNW 5.8 mph - N/A   Clear
10:55 AM 30.2 °F 24.3 °F 14.0 °F 51% 30.40 in 10.0 mi North 5.8 mph - N/A   Clear
11:15 AM 30.2 °F 24.3 °F 14.0 °F 51% 30.38 in 10.0 mi North 5.8 mph - N/A   Clear
11:35 AM 30.2 °F 23.4 °F 14.0 °F 51% 30.37 in 10.0 mi North 6.9 mph - N/A   Clear
11:55 AM 32.0 °F 27.5 °F 14.0 °F 48% 30.37 in 10.0 mi North 4.6 mph - N/A   Clear
12:15 PM 32.0 °F 27.5 °F 14.0 °F 48% 30.38 in 10.0 mi NNE 4.6 mph - N/A   Clear
12:35 PM 32.0 °F 27.5 °F 14.0 °F 48% 30.38 in 10.0 mi NNW 4.6 mph - N/A   Clear
12:55 PM 32.0 °F 26.4 °F 15.8 °F 51% 30.37 in 10.0 mi North 5.8 mph - N/A   Clear
1:15 PM 32.0 °F 25.6 °F 14.0 °F 48% 30.36 in 10.0 mi North 6.9 mph - N/A   Clear
1:35 PM 32.0 °F 27.5 °F 14.0 °F 48% 30.36 in 10.0 mi NNW 4.6 mph - N/A   Clear
1:55 PM 32.0 °F 26.4 °F 14.0 °F 48% 30.34 in 10.0 mi NNE 5.8 mph - N/A   Clear
2:15 PM 32.0 °F 25.6 °F 15.8 °F 51% 30.31 in 10.0 mi ENE 6.9 mph - N/A   Clear
2:35 PM 33.8 °F 25.8 °F 15.8 °F 48% 30.29 in 10.0 mi NE 10.4 mph - N/A   Clear
2:55 PM 35.6 °F 28.6 °F 17.6 °F 48% 30.31 in 10.0 mi North 9.2 mph - N/A   Clear
3:15 PM 33.8 °F 25.3 °F 15.8 °F 48% 30.30 in 10.0 mi NE 11.5 mph - N/A   Clear
3:35 PM 35.6 °F 27.1 °F 17.6 °F 48% 30.27 in 10.0 mi NE 12.7 mph - N/A   Clear
3:55 PM 33.8 °F 25.8 °F 17.6 °F 52% 30.28 in 10.0 mi NE 10.4 mph - N/A   Clear
4:15 PM 35.6 °F 27.5 °F 17.6 °F 48% 30.28 in 10.0 mi NNE 11.5 mph - N/A   Scattered Clouds
4:35 PM 33.8 °F 26.4 °F 17.6 °F 52% 30.28 in 10.0 mi NE 9.2 mph - N/A   Mostly Cloudy
4:55 PM 33.8 °F 26.4 °F 17.6 °F 52% 30.28 in 10.0 mi NNE 9.2 mph - N/A   Overcast
5:15 PM 32.0 °F 25.6 °F 17.6 °F 55% 30.28 in 10.0 mi NNE 6.9 mph - N/A   Mostly Cloudy
5:35 PM 32.0 °F 25.6 °F 17.6 °F 55% 30.28 in 10.0 mi NNE 6.9 mph - N/A   Scattered Clouds
5:55 PM 32.0 °F 25.6 °F 17.6 °F 55% 30.29 in 10.0 mi NNE 6.9 mph - N/A   Scattered Clouds
6:15 PM 32.0 °F 25.6 °F 17.6 °F 55% 30.30 in 10.0 mi NNE 6.9 mph - N/A   Overcast
6:35 PM 32.0 °F 25.6 °F 17.6 °F 55% 30.31 in 10.0 mi NNE 6.9 mph - N/A   Overcast
6:55 PM 32.0 °F 24.2 °F 17.6 °F 55% 30.29 in 10.0 mi NNE 9.2 mph - N/A   Overcast
7:15 PM 32.0 °F 25.6 °F 17.6 °F 55% 30.29 in 10.0 mi NE 6.9 mph - N/A   Overcast
7:35 PM 32.0 °F 25.6 °F 17.6 °F 55% 30.29 in 10.0 mi NE 6.9 mph - N/A   Overcast
7:55 PM 32.0 °F 24.8 °F 19.4 °F 60% 30.29 in 10.0 mi NNE 8.1 mph - N/A   Overcast
8:15 PM 32.0 °F 24.8 °F 19.4 °F 60% 30.30 in 10.0 mi NNE 8.1 mph - N/A   Scattered Clouds
8:35 PM 30.2 °F 22.6 °F 19.4 °F 64% 30.29 in 10.0 mi NE 8.1 mph - N/A   Clear
8:55 PM 32.0 °F 23.0 °F 19.4 °F 60% 30.29 in 10.0 mi NE 11.5 mph - N/A   Clear
9:35 PM 30.2 °F 21.3 °F 19.4 °F 64% 30.29 in 10.0 mi NE 10.4 mph - N/A   Clear
9:55 PM 30.2 °F 21.9 °F 19.4 °F 64% 30.29 in 10.0 mi NE 9.2 mph - N/A   Clear
10:15 PM 30.2 °F 21.9 °F 19.4 °F 64% 30.30 in 10.0 mi NE 9.2 mph - N/A   Clear
10:55 PM 30.2 °F 21.9 °F 19.4 °F 64% 30.29 in 10.0 mi NNE 9.2 mph - N/A   Scattered Clouds
11:15 PM 30.2 °F 22.6 °F 21.2 °F 69% 30.30 in 10.0 mi NNE 8.1 mph - N/A   Clear
11:35 PM 30.2 °F 23.4 °F 21.2 °F 69% 30.30 in 10.0 mi NE 6.9 mph - N/A   Clear
11:55 PM 30.2 °F 21.9 °F 21.2 °F 69% 30.28 in 10.0 mi NNE 9.2 mph - N/A   Mostly Cloudy